Time;durP1;ratioP1;P1;durP2;ratioP2;P2;SDS_P1;SDS_P2;PMS_P1;PMS_P2;Temp;Humidity;BMP_temperature;BMP_pressure;BME280_temperature;BME280_humidity;BME280_pressure;Samples;Min_cycle;Max_cycle;Signal;HPM_P1;HPM_P2
2023/07/31 00:01:55;;;;;;;0.10;0.10;;;19.50;99.90;;;;;;5008227;28;20210;-80
2023/07/31 00:04:21;;;;;;;0.10;0.10;;;19.40;99.90;;;;;;5007642;28;20207;-81
2023/07/31 00:06:46;;;;;;;0.10;0.10;;;19.20;99.90;;;;;;5007968;28;20197;-81
2023/07/31 00:09:12;;;;;;;0.10;0.10;;;19.20;99.90;;;;;;5007282;28;20706;-80
2023/07/31 00:11:38;;;;;;;0.10;0.10;;;19.30;99.90;;;;;;5008652;28;20191;-80
2023/07/31 00:14:03;;;;;;;0.10;0.10;;;19.30;99.90;;;;;;5023561;28;20264;-80
2023/07/31 00:16:30;;;;;;;0.10;0.10;;;19.30;99.90;;;;;;5008332;28;20214;-80
2023/07/31 00:18:55;;;;;;;0.10;0.10;;;19.30;99.90;;;;;;5006366;28;20213;-80
2023/07/31 00:21:21;;;;;;;0.10;0.10;;;19.30;99.90;;;;;;5007149;28;20192;-80
2023/07/31 00:23:46;;;;;;;0.10;0.10;;;19.20;99.90;;;;;;5007996;28;20217;-80
2023/07/31 00:26:12;;;;;;;0.10;0.10;;;19.30;99.90;;;;;;5009381;28;20191;-80
2023/07/31 00:28:37;;;;;;;0.10;0.10;;;19.20;99.90;;;;;;5021491;28;20187;-80
2023/07/31 00:31:03;;;;;;;0.10;0.10;;;19.10;99.90;;;;;;5007757;28;20300;-81
2023/07/31 00:33:29;;;;;;;0.10;0.10;;;19.20;99.90;;;;;;5010786;28;20210;-82
2023/07/31 00:35:55;;;;;;;0.10;0.10;;;19.20;99.90;;;;;;5015368;28;20193;-80
2023/07/31 00:38:20;;;;;;;0.10;0.10;;;19.20;99.90;;;;;;5010004;28;20254;-81
2023/07/31 00:40:46;;;;;;;0.10;0.10;;;19.10;99.90;;;;;;5010504;28;20272;-81
2023/07/31 00:43:11;;;;;;;0.10;0.10;;;19.10;99.90;;;;;;5010992;28;20207;-81
2023/07/31 00:45:37;;;;;;;0.10;0.10;;;19.20;99.90;;;;;;5009156;28;20295;-81
2023/07/31 00:48:03;;;;;;;0.10;0.10;;;19.10;99.90;;;;;;5009322;28;20198;-81
2023/07/31 00:50:29;;;;;;;0.10;0.10;;;19.10;99.90;;;;;;5009936;28;20611;-81
2023/07/31 00:52:54;;;;;;;0.10;0.10;;;18.90;99.90;;;;;;5009453;28;20699;-81
2023/07/31 00:55:21;;;;;;;0.10;0.10;;;18.90;99.90;;;;;;5010833;28;20197;-81
2023/07/31 00:57:47;;;;;;;0.10;0.10;;;18.90;99.90;;;;;;5009390;28;20182;-81
2023/07/31 01:00:13;;;;;;;0.10;0.10;;;18.90;99.90;;;;;;5010410;28;20191;-81
2023/07/31 01:02:39;;;;;;;0.10;0.10;;;18.90;99.90;;;;;;5008101;28;20292;-81
2023/07/31 01:05:05;;;;;;;0.10;0.10;;;18.80;99.90;;;;;;5010782;28;20276;-81
2023/07/31 01:07:35;;;;;;;0.10;0.10;;;18.80;99.90;;;;;;5011187;28;20186;-81
2023/07/31 01:10:18;;;;;;;0.10;0.10;;;18.80;99.90;;;;;;5010385;28;20270;-81
2023/07/31 01:12:45;;;;;;;0.10;0.10;;;18.70;99.90;;;;;;5026090;28;20397;-80
2023/07/31 01:15:10;;;;;;;0.10;0.10;;;18.80;99.90;;;;;;5024171;28;20187;-81
2023/07/31 01:17:40;;;;;;;0.10;0.10;;;18.80;99.90;;;;;;5008329;28;20188;-81
2023/07/31 01:20:28;;;;;;;0.10;0.10;;;18.80;99.90;;;;;;5010480;28;20184;-80
2023/07/31 01:23:18;;;;;;;0.10;0.10;;;18.80;99.90;;;;;;5025720;28;20207;-81
2023/07/31 01:25:50;;;;;;;0.10;0.10;;;18.70;99.90;;;;;;5026164;28;20254;-81
2023/07/31 01:29:00;;;;;;;0.10;0.10;;;18.70;99.90;;;;;;5010995;28;20194;-81
2023/07/31 01:31:27;;;;;;;0.10;0.10;;;18.70;99.90;;;;;;4951524;28;20516;-81
2023/07/31 01:33:56;;;;;;;0.10;0.10;;;18.80;99.90;;;;;;5014974;28;20401;-81
2023/07/31 01:36:22;;;;;;;0.10;0.10;;;18.80;99.90;;;;;;5017275;28;20650;-81
2023/07/31 01:38:48;;;;;;;0.10;0.10;;;18.80;99.90;;;;;;5028756;28;20193;-81
2023/07/31 01:41:13;;;;;;;0.10;0.10;;;18.80;99.90;;;;;;5019739;28;20212;-80
2023/07/31 01:43:39;;;;;;;0.10;0.10;;;18.80;99.90;;;;;;5015954;28;20218;-81
2023/07/31 01:46:04;;;;;;;0.10;0.10;;;18.80;99.90;;;;;;5013145;28;20263;-80
2023/07/31 01:48:35;;;;;;;0.10;0.10;;;18.80;99.90;;;;;;5012902;28;20272;-81
2023/07/31 01:51:01;;;;;;;0.10;0.10;;;18.80;99.90;;;;;;5012989;28;20277;-82
2023/07/31 01:53:27;;;;;;;0.10;0.10;;;18.80;99.90;;;;;;5012631;28;20227;-81
2023/07/31 01:55:52;;;;;;;0.10;0.10;;;18.80;99.90;;;;;;5012730;28;20182;-81
2023/07/31 01:58:18;;;;;;;0.10;0.10;;;18.90;99.90;;;;;;5012893;28;20183;-81
2023/07/31 02:00:43;;;;;;;0.10;0.10;;;18.90;99.90;;;;;;5014669;28;20704;-81
2023/07/31 02:03:09;;;;;;;0.10;0.10;;;19.00;99.90;;;;;;5011032;28;20233;-81
2023/07/31 02:05:34;;;;;;;0.10;0.10;;;19.00;99.90;;;;;;5013542;28;20276;-81
2023/07/31 02:08:00;;;;;;;0.10;0.10;;;19.00;99.90;;;;;;5012316;28;20190;-81
2023/07/31 02:10:25;;;;;;;0.10;0.10;;;19.00;99.90;;;;;;5013172;28;20762;-81
2023/07/31 02:12:51;;;;;;;0.10;0.10;;;19.00;99.90;;;;;;5014429;28;20214;-81
2023/07/31 02:15:16;;;;;;;0.10;0.10;;;19.00;99.90;;;;;;5012972;28;20187;-80
2023/07/31 02:17:42;;;;;;;0.10;0.10;;;19.00;99.90;;;;;;5013008;28;20556;-81
2023/07/31 02:20:08;;;;;;;0.10;0.10;;;19.00;99.90;;;;;;5014764;28;20341;-81
2023/07/31 02:22:33;;;;;;;0.10;0.10;;;19.00;99.90;;;;;;5016912;28;20230;-80
2023/07/31 02:24:59;;;;;;;0.10;0.10;;;19.00;99.90;;;;;;5013414;28;20665;-80
2023/07/31 02:27:27;;;;;;;0.10;0.10;;;19.00;99.90;;;;;;5011972;28;20183;-80
2023/07/31 02:29:52;;;;;;;0.10;0.10;;;19.00;99.90;;;;;;5011189;28;20173;-81
2023/07/31 02:32:18;;;;;;;0.10;0.10;;;18.80;99.90;;;;;;5012013;28;20220;-81
2023/07/31 02:34:43;;;;;;;0.10;0.10;;;18.80;99.90;;;;;;5012294;28;20184;-81
2023/07/31 02:37:09;;;;;;;0.10;0.10;;;18.80;99.90;;;;;;5011932;28;20202;-81
2023/07/31 02:39:34;;;;;;;0.10;0.10;;;18.90;99.90;;;;;;5011961;28;20183;-81
2023/07/31 02:42:00;;;;;;;0.10;0.10;;;18.90;99.90;;;;;;5015269;28;20193;-81
2023/07/31 02:44:26;;;;;;;0.10;0.10;;;18.90;99.90;;;;;;5011775;28;20238;-80
2023/07/31 02:46:51;;;;;;;0.10;0.10;;;18.90;99.90;;;;;;5012295;28;20738;-80
2023/07/31 02:49:17;;;;;;;0.10;0.10;;;19.00;99.90;;;;;;5013626;28;20592;-81
2023/07/31 02:51:42;;;;;;;0.10;0.10;;;18.90;99.90;;;;;;5011309;28;21118;-81
2023/07/31 02:54:08;;;;;;;0.10;0.10;;;18.90;99.90;;;;;;5016244;28;20235;-81
2023/07/31 02:56:33;;;;;;;0.10;0.10;;;18.90;99.90;;;;;;5012094;28;20222;-80
2023/07/31 02:58:59;;;;;;;0.10;0.10;;;18.90;99.90;;;;;;5011735;28;20193;-81
2023/07/31 03:01:24;;;;;;;0.10;0.10;;;18.90;99.90;;;;;;5012701;28;20171;-81
2023/07/31 03:03:50;;;;;;;0.10;0.10;;;18.80;99.90;;;;;;5010953;28;20265;-81
2023/07/31 03:06:15;;;;;;;0.10;0.10;;;18.80;99.90;;;;;;5011430;28;20772;-81
2023/07/31 03:08:40;;;;;;;0.10;0.10;;;18.80;99.90;;;;;;5011210;28;20278;-81
2023/07/31 03:11:06;;;;;;;0.10;0.10;;;18.70;99.90;;;;;;5011198;28;20269;-81
2023/07/31 03:13:31;;;;;;;0.10;0.10;;;18.70;99.90;;;;;;5010938;28;20219;-81
2023/07/31 03:15:57;;;;;;;0.10;0.10;;;18.40;99.90;;;;;;5011847;28;20187;-81
2023/07/31 03:18:22;;;;;;;0.10;0.10;;;18.50;99.90;;;;;;5013145;28;20628;-82
2023/07/31 03:20:48;;;;;;;0.10;0.10;;;18.30;99.90;;;;;;5012141;28;20811;-81
2023/07/31 03:23:13;;;;;;;0.10;0.10;;;18.00;99.90;;;;;;5010592;28;20276;-80
2023/07/31 03:25:41;;;;;;;0.10;0.10;;;17.90;99.90;;;;;;5012660;28;20196;-81
2023/07/31 03:28:07;;;;;;;0.10;0.10;;;17.90;99.90;;;;;;5011240;28;20835;-81
2023/07/31 03:30:36;;;;;;;0.10;0.10;;;17.80;99.90;;;;;;5026691;28;20262;-81
2023/07/31 03:33:02;;;;;;;0.10;0.10;;;18.00;99.90;;;;;;5009257;28;20242;-81
2023/07/31 03:35:27;;;;;;;0.10;0.10;;;18.20;99.90;;;;;;5010218;28;20178;-81
2023/07/31 03:37:53;;;;;;;0.10;0.10;;;18.30;99.90;;;;;;5011401;28;20181;-81
2023/07/31 03:40:18;;;;;;;0.10;0.10;;;18.20;99.90;;;;;;5009924;28;20552;-82
2023/07/31 03:42:44;;;;;;;0.10;0.10;;;18.30;99.90;;;;;;5013866;28;20216;-81
2023/07/31 03:45:10;;;;;;;0.10;0.10;;;18.30;99.90;;;;;;5011995;28;20291;-81
2023/07/31 03:47:35;;;;;;;0.10;0.10;;;18.10;99.90;;;;;;5013512;28;20314;-81
2023/07/31 03:50:01;;;;;;;0.10;0.10;;;18.20;99.90;;;;;;5011239;28;20289;-81
2023/07/31 03:52:26;;;;;;;0.10;0.10;;;18.20;99.90;;;;;;5011558;28;20633;-81
2023/07/31 03:54:52;;;;;;;0.10;0.10;;;18.10;99.90;;;;;;5012253;28;20504;-81
2023/07/31 03:57:17;;;;;;;0.10;0.10;;;18.20;99.90;;;;;;5011397;28;20173;-81
2023/07/31 03:59:43;;;;;;;0.10;0.10;;;18.20;99.90;;;;;;5012156;28;20191;-81
2023/07/31 04:02:08;;;;;;;0.10;0.10;;;18.40;99.90;;;;;;5009606;28;20192;-81
2023/07/31 04:04:34;;;;;;;0.10;0.10;;;18.50;99.90;;;;;;5009804;28;20190;-81
2023/07/31 04:06:59;;;;;;;0.10;0.10;;;18.60;99.90;;;;;;5011323;28;20241;-81
2023/07/31 04:09:25;;;;;;;0.10;0.10;;;18.50;99.90;;;;;;5009705;28;20183;-81
2023/07/31 04:11:50;;;;;;;0.10;0.10;;;18.70;99.90;;;;;;5011997;28;20210;-81
2023/07/31 04:14:16;;;;;;;0.10;0.10;;;18.80;99.90;;;;;;5011991;28;20242;-81
2023/07/31 04:16:41;;;;;;;0.10;0.10;;;18.80;99.90;;;;;;5008256;28;20183;-82
2023/07/31 04:19:07;;;;;;;0.10;0.10;;;18.70;99.90;;;;;;5009573;28;20182;-82
2023/07/31 04:21:32;;;;;;;0.10;0.10;;;18.70;99.90;;;;;;5012276;28;20176;-82
2023/07/31 04:23:58;;;;;;;0.10;0.10;;;18.60;99.90;;;;;;5009081;28;20300;-81
2023/07/31 04:26:23;;;;;;;0.10;0.10;;;18.70;99.90;;;;;;5007047;28;20582;-80
2023/07/31 04:28:49;;;;;;;0.10;0.10;;;18.80;99.90;;;;;;5009311;28;20206;-80
2023/07/31 04:31:14;;;;;;;0.10;0.10;;;18.80;99.90;;;;;;5008703;28;20240;-80
2023/07/31 04:33:40;;;;;;;0.10;0.10;;;18.80;99.90;;;;;;5009419;28;20223;-80
2023/07/31 04:36:06;;;;;;;0.10;0.10;;;18.90;99.90;;;;;;5009083;28;20642;-80
2023/07/31 04:38:31;;;;;;;0.10;0.10;;;18.90;99.90;;;;;;5010026;28;20278;-80
2023/07/31 04:40:57;;;;;;;0.10;0.10;;;19.00;99.90;;;;;;5007181;28;20216;-80
2023/07/31 04:43:22;;;;;;;0.10;0.10;;;19.00;99.90;;;;;;5009119;28;20217;-80
2023/07/31 04:45:48;;;;;;;0.10;0.10;;;18.90;99.90;;;;;;5008595;28;20187;-79
2023/07/31 04:48:14;;;;;;;0.10;0.10;;;19.00;99.90;;;;;;5009297;28;20191;-81
2023/07/31 04:50:40;;;;;;;0.10;0.10;;;19.10;99.90;;;;;;5008985;28;20212;-82
2023/07/31 04:53:05;;;;;;;0.10;0.10;;;19.10;99.90;;;;;;5004399;28;20226;-81
2023/07/31 04:55:31;;;;;;;0.10;0.10;;;19.10;99.90;;;;;;5006844;28;20189;-82
2023/07/31 04:57:59;;;;;;;0.10;0.10;;;19.20;99.90;;;;;;5006800;28;20189;-82
2023/07/31 05:00:24;;;;;;;0.10;0.10;;;19.10;99.90;;;;;;5023011;28;20282;-81
2023/07/31 05:02:50;;;;;;;0.10;0.10;;;19.10;99.90;;;;;;5008456;28;20687;-82
2023/07/31 05:05:15;;;;;;;0.10;0.10;;;19.20;99.90;;;;;;5010436;28;20182;-82
2023/07/31 05:07:41;;;;;;;0.10;0.10;;;19.20;99.90;;;;;;5029987;28;20564;-82
2023/07/31 05:10:07;;;;;;;0.10;0.10;;;19.10;99.90;;;;;;5013400;28;20281;-82
2023/07/31 05:12:32;;;;;;;0.10;0.10;;;19.10;99.90;;;;;;5012774;28;20219;-82
2023/07/31 05:14:58;;;;;;;0.10;0.10;;;19.20;99.90;;;;;;5014511;28;20190;-82
2023/07/31 05:17:23;;;;;;;0.10;0.10;;;19.30;99.90;;;;;;5012146;28;20175;-82
2023/07/31 05:19:49;;;;;;;0.10;0.10;;;19.30;99.90;;;;;;5010583;28;20656;-82
2023/07/31 05:22:14;;;;;;;0.10;0.10;;;19.40;99.90;;;;;;5011226;28;20602;-82
2023/07/31 05:24:40;;;;;;;0.10;0.10;;;19.40;99.90;;;;;;5010299;28;20218;-82
2023/07/31 05:27:06;;;;;;;0.10;0.10;;;19.50;99.90;;;;;;5012111;28;20179;-82
2023/07/31 05:29:31;;;;;;;0.10;0.10;;;19.40;99.90;;;;;;5015285;28;20179;-82
2023/07/31 05:31:57;;;;;;;0.10;0.10;;;19.50;99.90;;;;;;5010070;28;20171;-82
2023/07/31 05:34:22;;;;;;;0.10;0.10;;;19.50;99.90;;;;;;5010605;28;20213;-82
2023/07/31 05:36:48;;;;;;;0.10;0.10;;;19.40;99.90;;;;;;5010109;28;20266;-82
2023/07/31 05:39:13;;;;;;;0.10;0.10;;;19.50;99.90;;;;;;5009581;28;20645;-82
2023/07/31 05:41:39;;;;;;;0.10;0.10;;;19.60;99.90;;;;;;5007041;28;20198;-81
2023/07/31 05:44:04;;;;;;;0.10;0.10;;;19.70;99.90;;;;;;5011523;28;20202;-81
2023/07/31 05:46:31;;;;;;;0.10;0.10;;;19.60;99.90;;;;;;5010549;28;20248;-80
2023/07/31 05:48:56;;;;;;;0.10;0.10;;;19.70;99.90;;;;;;5010284;28;20261;-80
2023/07/31 05:51:22;;;;;;;0.10;0.10;;;19.90;99.90;;;;;;5011883;28;20238;-81
2023/07/31 05:53:47;;;;;;;0.10;0.10;;;19.90;99.90;;;;;;5011054;28;20354;-81
2023/07/31 05:56:13;;;;;;;0.10;0.10;;;20.20;99.90;;;;;;5011552;28;20186;-81
2023/07/31 05:58:39;;;;;;;0.10;0.10;;;20.40;99.90;;;;;;5004003;28;20308;-81
2023/07/31 06:01:04;;;;;;;0.10;0.10;;;20.50;99.90;;;;;;5003357;28;20191;-81
2023/07/31 06:03:30;;;;;;;0.10;0.10;;;20.60;99.90;;;;;;5003559;28;21033;-80
2023/07/31 06:05:56;;;;;;;0.10;0.10;;;20.60;99.90;;;;;;5000565;28;20586;-80
2023/07/31 06:08:21;;;;;;;0.10;0.10;;;20.60;99.90;;;;;;5001271;28;20894;-80
2023/07/31 06:10:47;;;;;;;0.10;0.10;;;20.60;99.90;;;;;;5017222;28;20198;-81
2023/07/31 06:13:12;;;;;;;0.10;0.10;;;20.70;99.90;;;;;;4998629;28;20716;-80
2023/07/31 06:15:37;;;;;;;0.10;0.10;;;20.70;99.90;;;;;;5001001;28;20179;-80
2023/07/31 06:18:04;;;;;;;0.10;0.10;;;20.70;99.90;;;;;;5004521;28;20572;-80
2023/07/31 06:20:30;;;;;;;0.10;0.10;;;20.80;99.90;;;;;;5004889;28;20336;-80
2023/07/31 06:22:55;;;;;;;0.10;0.10;;;20.80;99.90;;;;;;5006295;28;20207;-80
2023/07/31 06:25:21;;;;;;;0.10;0.10;;;20.80;99.90;;;;;;5004876;28;20206;-80
2023/07/31 06:27:46;;;;;;;0.10;0.10;;;20.70;99.90;;;;;;5005647;28;20744;-81
2023/07/31 06:30:12;;;;;;;0.10;0.10;;;20.60;99.90;;;;;;5004258;28;20203;-81
2023/07/31 06:32:37;;;;;;;0.10;0.10;;;20.50;99.90;;;;;;5004210;28;20759;-81
2023/07/31 06:35:03;;;;;;;0.10;0.10;;;20.30;99.90;;;;;;5004784;28;20187;-80
2023/07/31 06:37:29;;;;;;;0.10;0.10;;;20.10;99.90;;;;;;5004362;28;20248;-80
2023/07/31 06:39:54;;;;;;;0.10;0.10;;;20.10;99.90;;;;;;5006394;28;20208;-80
2023/07/31 06:42:20;;;;;;;0.10;0.10;;;20.30;99.90;;;;;;5007287;28;20695;-80
2023/07/31 06:44:45;;;;;;;0.10;0.10;;;20.60;99.90;;;;;;5003769;28;20260;-80
2023/07/31 06:47:11;;;;;;;0.10;0.10;;;20.90;99.90;;;;;;5005737;28;20187;-80
2023/07/31 06:49:36;;;;;;;0.10;0.10;;;21.00;99.90;;;;;;5004288;28;20194;-80
2023/07/31 06:52:02;;;;;;;0.10;0.10;;;20.90;99.90;;;;;;5007331;28;20191;-80
2023/07/31 06:54:28;;;;;;;0.10;0.10;;;20.80;99.90;;;;;;5004901;28;20214;-80
2023/07/31 06:56:54;;;;;;;0.10;0.10;;;20.80;99.90;;;;;;5006759;28;20274;-80
2023/07/31 06:59:19;;;;;;;0.10;0.10;;;20.60;99.90;;;;;;5004501;28;20777;-80
2023/07/31 07:01:44;;;;;;;0.10;0.10;;;20.70;99.90;;;;;;5004922;28;20191;-80
2023/07/31 07:04:10;;;;;;;0.10;0.10;;;20.90;99.90;;;;;;5003904;28;20214;-80
2023/07/31 07:06:36;;;;;;;0.10;0.10;;;21.00;99.90;;;;;;5004813;28;20771;-80
2023/07/31 07:09:01;;;;;;;0.10;0.10;;;21.30;99.90;;;;;;5005431;28;20781;-80
2023/07/31 07:11:26;;;;;;;0.10;0.10;;;21.40;99.90;;;;;;5005303;28;20198;-80
2023/07/31 07:13:52;;;;;;;0.10;0.10;;;21.70;99.90;;;;;;5004806;28;20260;-79
2023/07/31 07:16:17;;;;;;;0.10;0.10;;;22.10;99.90;;;;;;5005054;28;20187;-80
2023/07/31 07:18:43;;;;;;;0.10;0.10;;;22.40;99.90;;;;;;5005055;28;20608;-80
2023/07/31 07:21:09;;;;;;;0.10;0.10;;;22.60;99.90;;;;;;5005293;28;20194;-80
2023/07/31 07:23:34;;;;;;;0.10;0.10;;;22.70;99.90;;;;;;5021158;28;20206;-80
2023/07/31 07:26:00;;;;;;;0.10;0.10;;;22.60;99.90;;;;;;5005282;28;20215;-80
2023/07/31 07:28:25;;;;;;;0.10;0.10;;;22.40;99.90;;;;;;5002243;28;21236;-83
2023/07/31 07:30:53;;;;;;;0.10;0.10;;;22.30;99.90;;;;;;5004712;28;20249;-81
2023/07/31 07:33:19;;;;;;;26.57;24.13;;;22.20;99.90;;;;;;5004583;28;20218;-80
2023/07/31 07:35:44;;;;;;;0.10;0.10;;;22.30;99.90;;;;;;5005627;28;20198;-82
2023/07/31 07:38:10;;;;;;;0.10;0.10;;;22.30;99.90;;;;;;5004927;28;20198;-81
2023/07/31 07:40:39;;;;;;;0.10;0.10;;;22.30;99.90;;;;;;5004838;28;20199;-81
2023/07/31 07:43:05;;;;;;;0.10;0.10;;;22.20;99.90;;;;;;5002747;28;20211;-81
2023/07/31 07:45:30;;;;;;;0.10;0.10;;;22.20;99.90;;;;;;5021679;28;20256;-81
2023/07/31 07:47:56;;;;;;;0.10;0.10;;;22.20;99.90;;;;;;5022774;28;20195;-80
2023/07/31 07:50:21;;;;;;;0.10;0.10;;;22.20;99.90;;;;;;5005952;28;20211;-80
2023/07/31 07:52:47;;;;;;;0.10;0.10;;;22.00;99.90;;;;;;5004347;28;20292;-80
2023/07/31 07:55:12;;;;;;;0.10;0.10;;;21.90;99.90;;;;;;5004161;28;20194;-80
2023/07/31 07:57:38;;;;;;;0.10;0.10;;;21.90;99.90;;;;;;5005589;28;20225;-82
2023/07/31 08:00:05;;;;;;;0.10;0.10;;;21.90;99.90;;;;;;5019967;28;20186;-80
2023/07/31 08:02:31;;;;;;;0.10;0.10;;;21.80;99.90;;;;;;5003351;28;20236;-80
2023/07/31 08:04:57;;;;;;;0.10;0.10;;;21.60;99.90;;;;;;5003822;28;20730;-81
2023/07/31 08:07:22;;;;;;;0.10;0.10;;;21.50;99.90;;;;;;5004979;28;20191;-81
2023/07/31 08:09:47;;;;;;;0.10;0.10;;;21.70;99.90;;;;;;5006254;28;20532;-81
2023/07/31 08:12:13;;;;;;;0.10;0.10;;;21.90;99.90;;;;;;5004262;28;20690;-85
2023/07/31 08:14:38;;;;;;;0.10;0.10;;;22.10;99.90;;;;;;5003744;28;20281;-84
2023/07/31 08:17:04;;;;;;;0.10;0.10;;;22.00;99.90;;;;;;5004416;28;20191;-86
2023/07/31 08:19:30;;;;;;;0.10;0.10;;;22.10;99.90;;;;;;5006232;28;20191;-84
2023/07/31 08:21:55;;;;;;;0.10;0.10;;;22.10;99.90;;;;;;5004778;28;20191;-81
2023/07/31 08:24:21;;;;;;;0.10;0.10;;;22.10;99.90;;;;;;5004076;28;20207;-84
2023/07/31 08:26:47;;;;;;;0.10;0.10;;;22.10;99.90;;;;;;5002990;28;20389;-80
2023/07/31 08:29:12;;;;;;;0.10;0.10;;;22.20;99.90;;;;;;5017386;28;20191;-80
2023/07/31 08:31:38;;;;;;;0.10;0.10;;;22.30;99.90;;;;;;5002232;28;20550;-80
2023/07/31 08:34:03;;;;;;;0.10;0.10;;;22.30;99.90;;;;;;5004516;28;20312;-80
2023/07/31 08:36:29;;;;;;;0.10;0.10;;;22.60;99.90;;;;;;5006058;28;20186;-81
2023/07/31 08:38:54;;;;;;;0.10;0.10;;;22.80;99.90;;;;;;5004195;28;20186;-83
2023/07/31 08:41:20;;;;;;;0.10;0.10;;;22.70;99.90;;;;;;5003488;28;21049;-82
2023/07/31 08:43:46;;;;;;;0.10;0.10;;;22.50;99.90;;;;;;5019907;28;20219;-82
2023/07/31 08:46:14;;;;;;;0.10;0.10;;;22.50;99.90;;;;;;5004006;28;20214;-82
2023/07/31 08:48:42;;;;;;;0.10;0.10;;;22.60;99.90;;;;;;5004501;28;20195;-82
2023/07/31 08:51:07;;;;;;;0.10;0.10;;;22.50;99.90;;;;;;5002323;28;20218;-82
2023/07/31 08:53:33;;;;;;;0.10;0.10;;;22.70;99.90;;;;;;5005556;28;20215;-82
2023/07/31 08:55:59;;;;;;;0.10;0.10;;;22.70;99.90;;;;;;5005792;28;20175;-82
2023/07/31 08:58:27;;;;;;;0.10;0.10;;;22.80;99.90;;;;;;5013188;28;20183;-81
2023/07/31 09:00:54;;;;;;;0.10;0.10;;;22.80;99.90;;;;;;5011667;28;20191;-81
2023/07/31 09:03:22;;;;;;;0.10;0.10;;;22.60;99.90;;;;;;5011652;28;20223;-81
2023/07/31 09:05:49;;;;;;;0.10;0.10;;;22.70;99.90;;;;;;5026951;28;20202;-81
2023/07/31 09:08:19;;;;;;;0.10;0.10;;;22.80;99.90;;;;;;5025363;28;20210;-81
2023/07/31 09:10:46;;;;;;;0.10;0.10;;;22.90;99.90;;;;;;5009848;28;20270;-83
2023/07/31 09:13:14;;;;;;;0.10;0.10;;;22.90;99.90;;;;;;5005658;28;20219;-83
2023/07/31 09:15:44;;;;;;;0.10;0.10;;;23.00;99.90;;;;;;5004373;28;20223;-83
2023/07/31 09:18:09;;;;;;;0.10;0.10;;;23.00;99.90;;;;;;5004029;28;20252;-83
2023/07/31 09:20:36;;;;;;;0.10;0.10;;;23.10;99.90;;;;;;5006749;28;20258;-82
2023/07/31 09:23:10;;;;;;;0.10;0.10;;;23.00;99.90;;;;;;5024260;28;20282;-83
2023/07/31 09:25:36;;;;;;;0.10;0.10;;;22.90;99.90;;;;;;5011111;28;20213;-83
2023/07/31 09:28:04;;;;;;;0.10;0.10;;;22.90;99.90;;;;;;5023805;28;20198;-82
2023/07/31 09:30:31;;;;;;;0.10;0.10;;;22.90;99.90;;;;;;5003549;28;20191;-83
2023/07/31 09:33:06;;;;;;;0.10;0.10;;;22.70;99.90;;;;;;5006834;28;20237;-83
2023/07/31 09:35:34;;;;;;;0.10;0.10;;;22.60;99.90;;;;;;5004859;28;20175;-83
2023/07/31 09:38:09;;;;;;;0.10;0.10;;;22.60;99.90;;;;;;5006347;28;20183;-83
2023/07/31 09:40:36;;;;;;;0.10;0.10;;;22.30;99.90;;;;;;5005381;28;20191;-83
2023/07/31 09:43:04;;;;;;;0.10;0.10;;;22.80;99.90;;;;;;5020103;28;20230;-83
2023/07/31 09:45:30;;;;;;;0.10;0.10;;;23.10;99.90;;;;;;5020481;28;20187;-83
2023/07/31 09:47:56;;;;;;;0.10;0.10;;;23.30;99.90;;;;;;5004219;28;20209;-83
2023/07/31 09:50:24;;;;;;;0.10;0.10;;;23.30;99.90;;;;;;5003317;28;20207;-83
2023/07/31 09:52:51;;;;;;;0.10;0.10;;;23.50;99.90;;;;;;5007014;28;20230;-83
2023/07/31 09:55:18;;;;;;;0.10;0.10;;;23.80;99.90;;;;;;5009514;28;20187;-83
2023/07/31 09:57:47;;;;;;;0.10;0.10;;;23.80;99.90;;;;;;5008119;28;20546;-84
2023/07/31 10:00:14;;;;;;;0.10;0.10;;;23.70;99.90;;;;;;5009505;28;20240;-82
2023/07/31 10:02:41;;;;;;;0.10;0.10;;;23.50;99.90;;;;;;5006695;28;20357;-83
2023/07/31 10:05:07;;;;;;;0.10;0.10;;;23.30;99.90;;;;;;5009625;28;20187;-81
2023/07/31 10:07:39;;;;;;;0.10;0.10;;;23.10;99.90;;;;;;5009059;28;20191;-80
2023/07/31 10:10:08;;;;;;;0.10;0.10;;;23.00;99.90;;;;;;5022689;28;20248;-80
2023/07/31 10:12:34;;;;;;;0.10;0.10;;;23.10;99.90;;;;;;5012324;28;20269;-81
2023/07/31 10:15:00;;;;;;;0.10;0.10;;;23.20;99.90;;;;;;5011719;28;20619;-80
2023/07/31 10:17:26;;;;;;;0.10;0.10;;;23.30;99.90;;;;;;5010094;28;20286;-81
2023/07/31 10:19:53;;;;;;;0.10;0.10;;;23.40;99.90;;;;;;5009398;28;20195;-81
2023/07/31 10:22:21;;;;;;;0.20;0.20;;;23.50;99.90;;;;;;5022274;28;20282;-81
2023/07/31 10:24:48;;;;;;;0.10;0.10;;;23.50;99.90;;;;;;5007732;28;20191;-81
2023/07/31 10:27:13;;;;;;;0.10;0.10;;;23.60;99.90;;;;;;5005387;28;20199;-81
2023/07/31 10:29:40;;;;;;;0.10;0.10;;;23.40;99.90;;;;;;5004975;28;20538;-81
2023/07/31 10:32:10;;;;;;;2.50;2.43;;;23.40;99.90;;;;;;5005503;28;20198;-81
2023/07/31 10:34:36;;;;;;;0.10;0.10;;;23.50;99.90;;;;;;5021443;28;21197;-81
2023/07/31 10:37:28;;;;;;;0.10;0.10;;;23.70;99.90;;;;;;5005574;28;21128;-81
2023/07/31 10:40:16;;;;;;;0.10;0.10;;;23.80;99.90;;;;;;5020555;28;20840;-81
2023/07/31 10:42:48;;;;;;;0.10;0.10;;;24.00;99.90;;;;;;5004807;28;20207;-84
2023/07/31 10:45:24;;;;;;;0.10;0.10;;;24.10;99.90;;;;;;5004982;28;20202;-81
2023/07/31 10:47:57;;;;;;;0.10;0.10;;;24.10;99.90;;;;;;5007161;28;20182;-81
2023/07/31 10:50:26;;;;;;;0.10;0.10;;;23.90;99.90;;;;;;5005755;28;20202;-81
2023/07/31 10:52:54;;;;;;;0.10;0.10;;;24.00;99.90;;;;;;5005958;28;20322;-81
2023/07/31 10:55:43;;;;;;;0.10;0.10;;;24.10;99.90;;;;;;5004890;28;20183;-81
2023/07/31 10:58:13;;;;;;;0.10;0.10;;;24.40;99.90;;;;;;5004886;28;20219;-81
2023/07/31 11:00:43;;;;;;;0.10;0.10;;;24.70;99.90;;;;;;5006152;28;20191;-81
2023/07/31 11:03:16;;;;;;;0.10;0.10;;;24.80;99.90;;;;;;5020253;28;20226;-81
2023/07/31 11:06:09;;;;;;;0.10;0.10;;;24.80;99.90;;;;;;5006273;28;20664;-81
2023/07/31 11:08:41;;;;;;;0.10;0.10;;;24.70;99.90;;;;;;5004414;28;20237;-81
2023/07/31 11:11:08;;;;;;;0.10;0.10;;;24.60;99.90;;;;;;5004017;28;20273;-80
2023/07/31 11:13:39;;;;;;;0.10;0.10;;;24.60;99.90;;;;;;5021122;28;20763;-83
2023/07/31 11:16:05;;;;;;;0.10;0.10;;;24.70;99.90;;;;;;5003813;28;20223;-82
2023/07/31 11:18:30;;;;;;;0.10;0.10;;;24.80;99.90;;;;;;5010488;28;20175;-81
2023/07/31 11:20:56;;;;;;;0.10;0.10;;;24.70;99.90;;;;;;5010829;28;20238;-80
2023/07/31 11:23:23;;;;;;;0.10;0.10;;;24.90;99.90;;;;;;5014204;28;20210;-80
2023/07/31 11:25:49;;;;;;;0.10;0.10;;;25.00;99.90;;;;;;5026715;28;20192;-80
2023/07/31 11:28:16;;;;;;;0.10;0.10;;;25.00;99.90;;;;;;5009199;28;20198;-81
2023/07/31 11:30:43;;;;;;;0.10;0.10;;;25.20;99.90;;;;;;5009978;28;20214;-80
2023/07/31 11:33:10;;;;;;;0.10;0.10;;;25.30;99.90;;;;;;5010292;28;20952;-80
2023/07/31 11:35:44;;;;;;;0.10;0.10;;;25.40;99.90;;;;;;5011465;28;20205;-80
2023/07/31 11:38:11;;;;;;;0.10;0.10;;;25.80;99.90;;;;;;5009837;28;20607;-80
2023/07/31 11:40:44;;;;;;;0.10;0.10;;;26.20;99.90;;;;;;5021360;28;20209;-80
2023/07/31 11:43:11;;;;;;;0.10;0.10;;;26.10;99.90;;;;;;5006862;28;20240;-79
2023/07/31 11:45:39;;;;;;;0.10;0.10;;;25.80;99.90;;;;;;5022569;28;20182;-80
2023/07/31 11:48:04;;;;;;;0.10;0.10;;;25.70;99.90;;;;;;5021743;28;20191;-81
2023/07/31 11:50:35;;;;;;;0.10;0.10;;;25.80;99.90;;;;;;4999632;28;20287;-80
2023/07/31 11:53:07;;;;;;;0.10;0.10;;;25.80;99.90;;;;;;5003404;28;20223;-81
2023/07/31 11:55:32;;;;;;;0.10;0.10;;;25.40;99.90;;;;;;5003071;28;20179;-80
2023/07/31 11:57:59;;;;;;;0.10;0.10;;;25.60;99.90;;;;;;5003715;28;20186;-80
2023/07/31 12:00:25;;;;;;;0.10;0.10;;;25.40;99.90;;;;;;5004625;28;20248;-80
2023/07/31 12:02:51;;;;;;;0.10;0.10;;;25.40;99.90;;;;;;5003902;28;20218;-80
2023/07/31 12:05:17;;;;;;;0.10;0.10;;;25.50;99.90;;;;;;5005638;28;20194;-80
2023/07/31 12:07:54;;;;;;;0.10;0.10;;;25.60;99.90;;;;;;5004718;28;20229;-80
2023/07/31 12:10:30;;;;;;;0.10;0.10;;;25.60;99.90;;;;;;5002806;28;20187;-81
2023/07/31 12:13:00;;;;;;;0.10;0.10;;;25.40;99.90;;;;;;5004566;28;20222;-80
2023/07/31 12:15:31;;;;;;;0.10;0.10;;;25.40;99.90;;;;;;5002220;28;20221;-81
2023/07/31 12:17:57;;;;;;;0.10;0.10;;;25.40;99.90;;;;;;5019619;28;20183;-81
2023/07/31 12:20:23;;;;;;;0.10;0.10;;;25.30;99.90;;;;;;5003200;28;20673;-80
2023/07/31 12:22:48;;;;;;;0.10;0.10;;;25.10;99.90;;;;;;5006723;28;20293;-81
2023/07/31 12:25:17;;;;;;;0.10;0.10;;;25.00;99.90;;;;;;5007538;28;20254;-80
2023/07/31 12:27:45;;;;;;;0.10;0.10;;;25.00;99.90;;;;;;5008226;28;20219;-80
2023/07/31 12:30:32;;;;;;;0.10;0.10;;;25.30;99.90;;;;;;5007375;28;20226;-81
2023/07/31 12:33:03;;;;;;;0.10;0.10;;;25.90;99.90;;;;;;5005780;28;20872;-80
2023/07/31 12:35:35;;;;;;;0.10;0.10;;;26.30;99.90;;;;;;5008109;28;20559;-80
2023/07/31 12:38:04;;;;;;;0.10;0.10;;;26.60;99.90;;;;;;5005792;28;20247;-80
2023/07/31 12:40:29;;;;;;;0.10;0.10;;;27.00;99.90;;;;;;5007345;28;20505;-80
2023/07/31 12:42:55;;;;;;;0.10;0.10;;;27.20;99.90;;;;;;5026120;28;21492;-80
2023/07/31 12:45:21;;;;;;;0.10;0.10;;;27.30;99.90;;;;;;5009106;28;20191;-80
2023/07/31 12:47:47;;;;;;;0.10;0.10;;;27.30;99.90;;;;;;5007533;28;21012;-81